createdAt,value
2023-05-16T00:00:48.950Z,0.00
2023-05-16T00:01:48.937Z,0.00
2023-05-16T00:02:49.057Z,0.00
2023-05-16T00:03:48.993Z,0.00
2023-05-16T00:04:48.835Z,0.00
2023-05-16T00:05:48.778Z,0.00
2023-05-16T00:06:48.740Z,0.00
2023-05-16T00:07:48.701Z,0.00
2023-05-16T00:08:48.669Z,0.00
2023-05-16T00:09:48.706Z,0.00
2023-05-16T00:10:48.635Z,0.00
2023-05-16T00:11:48.593Z,0.00
2023-05-16T00:12:48.546Z,0.00
2023-05-16T00:13:48.526Z,0.00
2023-05-16T00:14:48.545Z,0.00
2023-05-16T00:15:48.441Z,0.00
2023-05-16T00:16:48.461Z,0.00
2023-05-16T00:17:48.413Z,0.00
2023-05-16T00:18:48.381Z,0.00
2023-05-16T00:19:48.390Z,0.00
2023-05-16T00:20:48.289Z,0.00
2023-05-16T00:21:48.258Z,0.00
2023-05-16T00:22:48.220Z,0.00
2023-05-16T00:23:48.214Z,0.00
2023-05-16T00:24:48.180Z,0.00
2023-05-16T00:25:48.213Z,0.00
2023-05-16T00:26:48.102Z,0.00
2023-05-16T00:27:48.118Z,0.00
2023-05-16T00:28:48.049Z,0.00
2023-05-16T00:29:48.022Z,0.00
2023-05-16T00:30:47.963Z,0.00
2023-05-16T00:31:48.493Z,0.00
2023-05-16T00:32:47.969Z,0.00
2023-05-16T00:33:47.865Z,0.00
2023-05-16T00:34:47.871Z,0.00
2023-05-16T00:35:47.821Z,0.00
2023-05-16T00:36:47.780Z,0.00
2023-05-16T00:37:47.813Z,0.00
2023-05-16T00:38:47.725Z,0.00
2023-05-16T00:39:47.694Z,0.00
2023-05-16T00:40:47.659Z,0.00
2023-05-16T00:41:47.717Z,0.00
2023-05-16T00:42:47.595Z,0.00
2023-05-16T00:43:47.615Z,0.00
2023-05-16T00:44:47.520Z,0.00
2023-05-16T00:45:47.592Z,0.00
2023-05-16T00:46:47.645Z,0.00
2023-05-16T00:47:47.448Z,0.00
2023-05-16T00:48:47.388Z,0.00
2023-05-16T00:49:47.410Z,0.00
2023-05-16T00:50:47.331Z,0.00
2023-05-16T00:51:47.285Z,0.00
2023-05-16T00:52:47.253Z,0.00
2023-05-16T00:53:47.236Z,0.00
2023-05-16T00:54:47.184Z,0.00
2023-05-16T00:55:47.397Z,0.00
2023-05-16T00:56:47.133Z,0.00
2023-05-16T00:57:47.095Z,0.00
2023-05-16T00:58:47.089Z,0.00
2023-05-16T00:59:47.039Z,0.00
2023-05-16T01:00:48.581Z,0.00
2023-05-16T01:01:47.062Z,0.00
2023-05-16T01:02:47.026Z,0.00
2023-05-16T01:03:47.118Z,0.00
2023-05-16T01:04:46.859Z,0.00
2023-05-16T01:05:46.925Z,0.00
2023-05-16T01:06:46.802Z,0.00
2023-05-16T01:07:46.827Z,0.00
2023-05-16T01:08:46.841Z,0.00
2023-05-16T01:09:46.725Z,0.00
2023-05-16T01:10:46.670Z,0.00
2023-05-16T01:11:46.634Z,0.00
2023-05-16T01:12:46.611Z,0.00
2023-05-16T01:13:46.701Z,0.00
2023-05-16T01:14:46.535Z,0.00
2023-05-16T01:15:46.577Z,0.00
2023-05-16T01:16:46.481Z,0.00
2023-05-16T01:17:46.502Z,0.00
2023-05-16T01:18:46.459Z,0.00
2023-05-16T01:19:46.456Z,0.00
2023-05-16T01:20:46.352Z,0.00
2023-05-16T01:21:46.305Z,0.00
2023-05-16T01:22:46.279Z,0.00
2023-05-16T01:23:46.280Z,0.00
2023-05-16T01:24:46.215Z,0.00
2023-05-16T01:25:46.234Z,0.00
2023-05-16T01:26:46.141Z,0.00
2023-05-16T01:27:46.112Z,0.00
2023-05-16T01:28:46.102Z,0.00
2023-05-16T01:29:46.061Z,0.00
2023-05-16T01:30:46.034Z,0.00
2023-05-16T01:31:46.155Z,0.00
2023-05-16T01:32:46.010Z,0.00
2023-05-16T01:33:45.930Z,0.00
2023-05-16T01:34:45.882Z,0.00
2023-05-16T01:35:45.845Z,0.00
2023-05-16T01:36:45.863Z,0.00
2023-05-16T01:37:45.778Z,0.00
2023-05-16T01:38:45.765Z,0.00
2023-05-16T01:39:45.724Z,0.00
2023-05-16T01:40:45.674Z,0.00
2023-05-16T01:41:45.720Z,0.00
2023-05-16T01:42:45.625Z,0.00
2023-05-16T01:43:46.264Z,0.00
2023-05-16T01:44:45.551Z,0.00
2023-05-16T01:45:45.519Z,0.00
2023-05-16T01:46:45.529Z,0.00
2023-05-16T01:47:45.565Z,0.00
2023-05-16T01:48:45.452Z,0.00
2023-05-16T01:49:45.393Z,0.00
2023-05-16T01:50:45.421Z,0.00
2023-05-16T01:51:45.350Z,0.00
2023-05-16T01:52:45.311Z,0.00
2023-05-16T01:53:45.280Z,0.00
2023-05-16T01:54:45.249Z,0.00
2023-05-16T01:55:45.257Z,0.00
2023-05-16T01:56:45.162Z,0.00
2023-05-16T01:57:45.127Z,0.00
2023-05-16T01:58:45.090Z,0.00
2023-05-16T01:59:45.125Z,0.00
2023-05-16T02:00:45.148Z,0.00
2023-05-16T02:01:45.031Z,0.00
2023-05-16T02:02:45.010Z,0.00
2023-05-16T02:03:44.964Z,0.00
2023-05-16T02:04:44.912Z,0.00
2023-05-16T02:05:44.869Z,0.00
2023-05-16T02:06:44.958Z,0.00
2023-05-16T02:07:44.820Z,0.00
2023-05-16T02:08:44.772Z,0.00
2023-05-16T02:09:44.740Z,0.00
2023-05-16T02:10:44.701Z,0.00
2023-05-16T02:11:44.785Z,0.00
2023-05-16T02:12:44.708Z,0.00
2023-05-16T02:13:44.626Z,0.00
2023-05-16T02:14:44.605Z,0.00
2023-05-16T02:15:44.568Z,0.00
2023-05-16T02:16:44.567Z,0.00
2023-05-16T02:17:44.511Z,0.00
2023-05-16T02:18:44.550Z,0.00
2023-05-16T02:19:44.430Z,0.00
2023-05-16T02:20:44.370Z,0.00
2023-05-16T02:21:44.370Z,0.00
2023-05-16T02:22:44.319Z,0.00
2023-05-16T02:23:44.307Z,0.00
2023-05-16T02:24:44.318Z,0.00
2023-05-16T02:25:44.216Z,0.00
2023-05-16T02:26:44.208Z,0.00
2023-05-16T02:27:44.162Z,0.00
2023-05-16T02:28:44.188Z,0.00
2023-05-16T02:29:44.171Z,0.00
2023-05-16T02:30:44.177Z,0.00
2023-05-16T02:31:44.039Z,0.00
2023-05-16T02:32:44.012Z,0.00
2023-05-16T02:33:43.971Z,0.00
2023-05-16T02:34:43.927Z,0.00
2023-05-16T02:35:43.900Z,0.00
2023-05-16T02:36:43.919Z,0.00
2023-05-16T02:37:43.819Z,0.00
2023-05-16T02:38:43.794Z,0.00
2023-05-16T02:39:43.786Z,0.00
2023-05-16T02:40:43.742Z,0.00
2023-05-16T02:41:43.706Z,0.00
2023-05-16T02:42:43.746Z,4.00
2023-05-16T02:43:46.809Z,4.00
2023-05-16T02:44:43.620Z,4.00
2023-05-16T02:45:43.575Z,4.00
2023-05-16T02:46:43.583Z,0.00
2023-05-16T02:47:43.549Z,4.00
2023-05-16T02:48:43.548Z,4.00
2023-05-16T02:49:43.439Z,4.00
2023-05-16T02:50:43.434Z,4.00
2023-05-16T02:51:43.427Z,8.00
2023-05-16T02:52:43.366Z,4.00
2023-05-16T02:53:43.315Z,8.00
2023-05-16T02:54:43.372Z,8.00
2023-05-16T02:55:43.269Z,8.00
2023-05-16T02:56:43.200Z,12.00
2023-05-16T02:57:43.176Z,12.00
2023-05-16T02:58:43.190Z,12.00
2023-05-16T02:59:43.176Z,16.00
2023-05-16T03:00:43.098Z,16.00
2023-05-16T03:01:43.086Z,20.00
2023-05-16T03:02:43.143Z,16.00
2023-05-16T03:03:43.566Z,20.00
2023-05-16T03:04:42.966Z,20.00
2023-05-16T03:05:42.902Z,24.00
2023-05-16T03:06:42.928Z,20.00
2023-05-16T03:07:42.887Z,24.00
2023-05-16T03:08:42.876Z,28.00
2023-05-16T03:09:42.789Z,32.00
2023-05-16T03:10:42.766Z,36.00
2023-05-16T03:11:42.741Z,40.00
2023-05-16T03:12:42.683Z,40.00
2023-05-16T03:13:42.754Z,48.00
2023-05-16T03:14:42.644Z,52.00
2023-05-16T03:15:42.604Z,52.00
2023-05-16T03:16:42.612Z,52.00
2023-05-16T03:17:42.536Z,56.00
2023-05-16T03:18:42.582Z,64.00
2023-05-16T03:19:42.475Z,72.00
2023-05-16T03:20:42.437Z,76.00
2023-05-16T03:21:43.305Z,84.00
2023-05-16T03:22:42.375Z,96.00
2023-05-16T03:23:42.409Z,104.00
2023-05-16T03:24:42.375Z,116.00
2023-05-16T03:25:42.556Z,120.00
2023-05-16T03:26:42.247Z,128.00
2023-05-16T03:27:42.200Z,140.00
2023-05-16T03:28:42.175Z,148.00
2023-05-16T03:29:42.193Z,152.00
2023-05-16T03:30:42.160Z,160.00
2023-05-16T03:31:42.115Z,172.00
2023-05-16T03:32:42.099Z,172.00
2023-05-16T03:33:42.019Z,180.00
2023-05-16T03:34:41.983Z,184.00
2023-05-16T03:35:42.022Z,208.00
2023-05-16T03:36:41.898Z,212.00
2023-05-16T03:37:41.913Z,204.00
2023-05-16T03:38:41.840Z,204.00
2023-05-16T03:39:41.808Z,212.00
2023-05-16T03:40:41.786Z,232.00
2023-05-16T03:41:41.859Z,220.00
2023-05-16T03:42:41.714Z,228.00
2023-05-16T03:43:41.687Z,248.00
2023-05-16T03:44:41.723Z,256.00
2023-05-16T03:45:41.647Z,252.00
2023-05-16T03:46:41.574Z,284.00
2023-05-16T03:47:41.589Z,292.00
2023-05-16T03:48:41.510Z,300.00
2023-05-16T03:49:41.487Z,340.00
2023-05-16T03:50:41.520Z,340.00
2023-05-16T03:51:41.458Z,352.00
2023-05-16T03:52:41.378Z,396.00
2023-05-16T03:53:41.354Z,376.00
2023-05-16T03:54:41.303Z,364.00
2023-05-16T03:55:41.348Z,380.00
2023-05-16T03:56:41.250Z,412.00
2023-05-16T03:57:41.250Z,420.00
2023-05-16T03:58:41.181Z,424.00
2023-05-16T03:59:41.172Z,440.00
2023-05-16T04:00:41.107Z,436.00
2023-05-16T04:01:41.179Z,428.00
2023-05-16T04:02:41.294Z,456.00
2023-05-16T04:03:41.027Z,428.00
2023-05-16T04:04:40.972Z,436.00
2023-05-16T04:05:40.994Z,460.00
2023-05-16T04:06:40.954Z,484.00
2023-05-16T04:07:40.973Z,528.00
2023-05-16T04:08:40.897Z,524.00
2023-05-16T04:09:40.812Z,520.00
2023-05-16T04:10:40.812Z,520.00
2023-05-16T04:11:40.758Z,568.00
2023-05-16T04:12:40.796Z,540.00
2023-05-16T04:13:40.754Z,552.00
2023-05-16T04:14:40.655Z,548.00
2023-05-16T04:15:40.630Z,552.00
2023-05-16T04:16:40.646Z,564.00
2023-05-16T04:17:40.675Z,572.00
2023-05-16T04:18:40.590Z,588.00
2023-05-16T04:19:40.512Z,584.00
2023-05-16T04:20:40.446Z,612.00
2023-05-16T04:21:40.426Z,688.00
2023-05-16T04:22:40.421Z,716.00
2023-05-16T04:23:40.357Z,696.00
2023-05-16T04:24:40.406Z,700.00
2023-05-16T04:25:40.304Z,700.00
2023-05-16T04:26:40.252Z,776.00
2023-05-16T04:27:40.245Z,768.00
2023-05-16T04:28:40.195Z,796.00
2023-05-16T04:29:40.235Z,784.00
2023-05-16T04:30:40.141Z,816.00
2023-05-16T04:31:40.124Z,796.00
2023-05-16T04:32:40.108Z,808.00
2023-05-16T04:33:40.061Z,776.00
2023-05-16T04:34:40.607Z,828.00
2023-05-16T04:35:39.968Z,820.00
2023-05-16T04:36:39.930Z,824.00
2023-05-16T04:37:39.904Z,1016.00
2023-05-16T04:38:39.880Z,1060.00
2023-05-16T04:39:39.916Z,1096.00
2023-05-16T04:40:39.796Z,1040.00
2023-05-16T04:41:39.766Z,1040.00
2023-05-16T04:42:39.752Z,1152.00
2023-05-16T04:43:39.696Z,1164.00
2023-05-16T04:44:39.787Z,1184.00
2023-05-16T04:45:39.670Z,1260.00
2023-05-16T04:46:39.682Z,1224.00
2023-05-16T04:47:39.592Z,1248.00
2023-05-16T04:48:39.549Z,1220.00
2023-05-16T04:49:39.521Z,1192.00
2023-05-16T04:50:39.537Z,1208.00
2023-05-16T04:51:39.433Z,1276.00
2023-05-16T04:52:39.404Z,1316.00
2023-05-16T04:53:39.426Z,1476.00
2023-05-16T04:54:39.378Z,1496.00
2023-05-16T04:55:39.306Z,1500.00
2023-05-16T04:56:39.328Z,2108.00
2023-05-16T04:57:39.247Z,2012.00
2023-05-16T04:58:40.424Z,1704.00
2023-05-16T04:59:39.180Z,1548.00
2023-05-16T05:00:39.138Z,1620.00
2023-05-16T05:01:39.111Z,1564.00
2023-05-16T05:02:39.220Z,1532.00
2023-05-16T05:03:39.037Z,1460.00
2023-05-16T05:04:39.058Z,1508.00
2023-05-16T05:05:39.023Z,1584.00
2023-05-16T05:06:38.944Z,1484.00
2023-05-16T05:07:38.905Z,1560.00
2023-05-16T05:08:38.918Z,1516.00
2023-05-16T05:09:38.853Z,1912.00
2023-05-16T05:10:38.814Z,1832.00
2023-05-16T05:11:38.775Z,2060.00
2023-05-16T05:12:38.753Z,2064.00
2023-05-16T05:13:38.715Z,1964.00
2023-05-16T05:14:38.751Z,2288.00
2023-05-16T05:15:38.651Z,2460.00
2023-05-16T05:16:38.610Z,2492.00
2023-05-16T05:17:38.686Z,2256.00
2023-05-16T05:18:38.667Z,2432.00
2023-05-16T05:19:38.640Z,2960.00
2023-05-16T05:20:38.546Z,3040.00
2023-05-16T05:21:38.446Z,2836.00
2023-05-16T05:22:38.415Z,2824.00
2023-05-16T05:23:38.375Z,2928.00
2023-05-16T05:24:38.350Z,3028.00
2023-05-16T05:25:38.320Z,3188.00
2023-05-16T05:26:38.341Z,3404.00
2023-05-16T05:27:38.249Z,3600.00
2023-05-16T05:28:38.230Z,3416.00
2023-05-16T05:29:38.255Z,3016.00
2023-05-16T05:30:38.201Z,3668.00
2023-05-16T05:31:38.202Z,3688.00
2023-05-16T05:32:38.182Z,3396.00
2023-05-16T05:33:38.059Z,3596.00
2023-05-16T05:34:38.158Z,3428.00
2023-05-16T05:35:37.991Z,3580.00
2023-05-16T05:36:37.952Z,3752.00
2023-05-16T05:37:37.932Z,3788.00
2023-05-16T05:38:37.950Z,3688.00
2023-05-16T05:39:37.871Z,3384.00
2023-05-16T05:40:37.885Z,3460.00
2023-05-16T05:41:37.799Z,3804.00
2023-05-16T05:42:37.773Z,3436.00
2023-05-16T05:43:37.733Z,3284.00
2023-05-16T05:44:37.741Z,3268.00
2023-05-16T05:45:38.053Z,3188.00
2023-05-16T05:46:37.760Z,3092.00
2023-05-16T05:47:37.719Z,2928.00
2023-05-16T05:48:37.702Z,2768.00
2023-05-16T05:49:37.536Z,2648.00
2023-05-16T05:50:37.812Z,2592.00
2023-05-16T05:51:37.538Z,2692.00
2023-05-16T05:52:37.433Z,2504.00
2023-05-16T05:53:37.409Z,2716.00
2023-05-16T05:54:37.379Z,2916.00
2023-05-16T05:55:37.399Z,3112.00
2023-05-16T05:56:37.361Z,3100.00
2023-05-16T05:57:37.284Z,3044.00
2023-05-16T05:58:37.250Z,3096.00
2023-05-16T05:59:37.223Z,3092.00
2023-05-16T06:00:37.209Z,3236.00
2023-05-16T06:01:37.150Z,3120.00
2023-05-16T06:02:37.348Z,3168.00
2023-05-16T06:03:37.123Z,2996.00
2023-05-16T06:04:37.057Z,3108.00
2023-05-16T06:05:37.054Z,3292.00
2023-05-16T06:06:36.983Z,3184.00
2023-05-16T06:07:36.950Z,3068.00
2023-05-16T06:08:36.974Z,3128.00
2023-05-16T06:09:36.923Z,3136.00
2023-05-16T06:10:36.872Z,3156.00
2023-05-16T06:11:36.827Z,3488.00
2023-05-16T06:12:36.796Z,3308.00
2023-05-16T06:13:36.768Z,3416.00
2023-05-16T06:14:36.787Z,3452.00
2023-05-16T06:15:36.706Z,3308.00
2023-05-16T06:16:36.701Z,3616.00
2023-05-16T06:17:36.679Z,3520.00
2023-05-16T06:18:36.660Z,3764.00
2023-05-16T06:19:36.567Z,3840.00
2023-05-16T06:20:36.674Z,4108.00
2023-05-16T06:21:36.502Z,4148.00
2023-05-16T06:22:36.483Z,3996.00
2023-05-16T06:23:36.443Z,3700.00
2023-05-16T06:24:36.482Z,3924.00
2023-05-16T06:25:36.373Z,3964.00
2023-05-16T06:26:36.380Z,4188.00
2023-05-16T06:27:36.308Z,4648.00
2023-05-16T06:28:36.303Z,4936.00
2023-05-16T06:29:36.517Z,5112.00
2023-05-16T06:30:36.212Z,5436.00
2023-05-16T06:31:36.286Z,5196.00
2023-05-16T06:32:36.171Z,5004.00
2023-05-16T06:33:36.112Z,4748.00
2023-05-16T06:34:36.161Z,4832.00
2023-05-16T06:35:36.052Z,4724.00
2023-05-16T06:36:36.026Z,4548.00
2023-05-16T06:37:36.208Z,4460.00
2023-05-16T06:38:36.004Z,4612.00
2023-05-16T06:39:36.113Z,4444.00
2023-05-16T06:40:35.964Z,4400.00
2023-05-16T06:41:35.878Z,4540.00
2023-05-16T06:42:36.850Z,4836.00
2023-05-16T06:43:35.798Z,4976.00
2023-05-16T06:44:35.758Z,4880.00
2023-05-16T06:45:35.740Z,5136.00
2023-05-16T06:46:35.844Z,5232.00
2023-05-16T06:47:35.721Z,5116.00
2023-05-16T06:48:35.638Z,5208.00
2023-05-16T06:49:35.890Z,5176.00
2023-05-16T06:50:35.864Z,5724.00
2023-05-16T06:51:35.839Z,5680.00
2023-05-16T06:52:35.779Z,5544.00
2023-05-16T06:53:35.505Z,5544.00
2023-05-16T06:54:35.469Z,5728.00
2023-05-16T06:55:35.414Z,5668.00
2023-05-16T06:56:35.972Z,6100.00
2023-05-16T06:57:35.401Z,5892.00
2023-05-16T06:58:35.350Z,6020.00
2023-05-16T06:59:35.345Z,5964.00
2023-05-16T07:00:35.256Z,5960.00
2023-05-16T07:01:35.253Z,6160.00
2023-05-16T07:02:35.271Z,6764.00
2023-05-16T07:03:35.300Z,6964.00
2023-05-16T07:04:35.140Z,6712.00
2023-05-16T07:05:35.089Z,5960.00
2023-05-16T07:06:35.067Z,6428.00
2023-05-16T07:07:35.037Z,6772.00
2023-05-16T07:08:35.015Z,6280.00
2023-05-16T07:09:35.023Z,6652.00
2023-05-16T07:10:34.943Z,6716.00
2023-05-16T07:11:34.902Z,6168.00
2023-05-16T07:12:34.885Z,6072.00
2023-05-16T07:13:36.130Z,6616.00
2023-05-16T07:14:34.816Z,6096.00
2023-05-16T07:15:34.830Z,6136.00
2023-05-16T07:16:34.850Z,6480.00
2023-05-16T07:17:34.856Z,6168.00
2023-05-16T07:18:34.963Z,6092.00
2023-05-16T07:19:34.691Z,6396.00
2023-05-16T07:20:34.691Z,6828.00
2023-05-16T07:21:34.583Z,6452.00
2023-05-16T07:22:34.590Z,5944.00
2023-05-16T07:23:34.596Z,6048.00
2023-05-16T07:24:34.561Z,6140.00
2023-05-16T07:25:34.483Z,6068.00
2023-05-16T07:26:34.598Z,6092.00
2023-05-16T07:27:34.406Z,5872.00
2023-05-16T07:28:34.368Z,6132.00
2023-05-16T07:29:34.343Z,5876.00
2023-05-16T07:30:34.313Z,6148.00
2023-05-16T07:31:34.338Z,6536.00
2023-05-16T07:32:34.554Z,5968.00
2023-05-16T07:33:34.225Z,5764.00
2023-05-16T07:34:34.189Z,5624.00
2023-05-16T07:35:34.176Z,5628.00
2023-05-16T07:36:34.126Z,5556.00
2023-05-16T07:37:34.086Z,5492.00
2023-05-16T07:38:34.111Z,5904.00
2023-05-16T07:39:34.035Z,6156.00
2023-05-16T07:40:34.046Z,6268.00
2023-05-16T07:41:33.955Z,6184.00
2023-05-16T07:42:33.935Z,6652.00
2023-05-16T07:43:33.895Z,6800.00
2023-05-16T07:44:33.862Z,7412.00
2023-05-16T07:45:33.917Z,8000.00
2023-05-16T07:46:33.843Z,8904.00
2023-05-16T07:47:33.917Z,9564.00
2023-05-16T07:48:33.740Z,8852.00
2023-05-16T07:49:33.705Z,8636.00
2023-05-16T07:50:33.668Z,8184.00
2023-05-16T07:51:33.751Z,7388.00
2023-05-16T07:52:33.605Z,8328.00
2023-05-16T07:53:33.582Z,8368.00
2023-05-16T07:54:34.466Z,8004.00
2023-05-16T07:55:33.564Z,7184.00
2023-05-16T07:56:33.481Z,6536.00
2023-05-16T07:57:33.501Z,6600.00
2023-05-16T07:58:33.424Z,6516.00
2023-05-16T07:59:33.444Z,6204.00
2023-05-16T08:00:33.358Z,6072.00
2023-05-16T08:01:33.346Z,6088.00
2023-05-16T08:02:33.488Z,6424.00
2023-05-16T08:03:33.420Z,6296.00
2023-05-16T08:04:33.221Z,6268.00
2023-05-16T08:05:33.250Z,6388.00
2023-05-16T08:06:33.191Z,6636.00
2023-05-16T08:07:33.137Z,6836.00
2023-05-16T08:08:33.142Z,7180.00
2023-05-16T08:09:33.076Z,6724.00
2023-05-16T08:10:33.106Z,6080.00
2023-05-16T08:11:33.017Z,5720.00
2023-05-16T08:12:33.011Z,5888.00
2023-05-16T08:13:32.941Z,5396.00
2023-05-16T08:14:32.992Z,5348.00
2023-05-16T08:15:32.884Z,5364.00
2023-05-16T08:16:32.876Z,5592.00
2023-05-16T08:17:32.847Z,6064.00
2023-05-16T08:18:32.809Z,6292.00
2023-05-16T08:19:32.764Z,6480.00
2023-05-16T08:20:32.774Z,7336.00
2023-05-16T08:21:33.360Z,7736.00
2023-05-16T08:22:32.659Z,7524.00
2023-05-16T08:23:32.689Z,7368.00
2023-05-16T08:24:32.597Z,7076.00
2023-05-16T08:25:32.568Z,7036.00
2023-05-16T08:26:32.581Z,6468.00
2023-05-16T08:27:33.368Z,6228.00
2023-05-16T08:28:32.476Z,6088.00
2023-05-16T08:29:32.440Z,6176.00
2023-05-16T08:30:32.410Z,6180.00
2023-05-16T08:31:32.428Z,6252.00
2023-05-16T08:32:32.428Z,6064.00
2023-05-16T08:33:32.316Z,5668.00
2023-05-16T08:34:32.293Z,5628.00
2023-05-16T08:35:32.259Z,5476.00
2023-05-16T08:36:32.225Z,5804.00
2023-05-16T08:37:32.189Z,5524.00
2023-05-16T08:38:32.205Z,5080.00
2023-05-16T08:39:32.144Z,5336.00
2023-05-16T08:40:32.108Z,5668.00
2023-05-16T08:41:32.083Z,5484.00
2023-05-16T08:42:32.033Z,4944.00
2023-05-16T08:43:32.111Z,4980.00
2023-05-16T08:44:32.013Z,5796.00
2023-05-16T08:45:31.949Z,6404.00
2023-05-16T08:46:31.940Z,5408.00
2023-05-16T08:47:32.109Z,5532.00
2023-05-16T08:48:31.854Z,5600.00
2023-05-16T08:49:31.809Z,5836.00
2023-05-16T08:50:31.852Z,6192.00
2023-05-16T08:51:31.749Z,5848.00
2023-05-16T08:52:31.798Z,5432.00
2023-05-16T08:53:31.704Z,5032.00
2023-05-16T08:54:31.648Z,4392.00
2023-05-16T08:55:31.619Z,5236.00
2023-05-16T08:56:31.661Z,4956.00
2023-05-16T08:57:31.568Z,4704.00
2023-05-16T08:58:31.527Z,4480.00
2023-05-16T08:59:31.510Z,5320.00
2023-05-16T09:00:31.479Z,5372.00
2023-05-16T09:01:31.474Z,6300.00
2023-05-16T09:02:31.480Z,6516.00
2023-05-16T09:03:31.393Z,6004.00
2023-05-16T09:04:31.479Z,5236.00
2023-05-16T09:05:31.304Z,6400.00
2023-05-16T09:06:31.270Z,7212.00
2023-05-16T09:07:31.270Z,5696.00
2023-05-16T09:08:31.287Z,5640.00
2023-05-16T09:09:31.185Z,6828.00
2023-05-16T09:10:31.161Z,6924.00
2023-05-16T09:11:31.127Z,6644.00
2023-05-16T09:12:31.094Z,6056.00
2023-05-16T09:13:31.063Z,6020.00
2023-05-16T09:14:31.088Z,6172.00
2023-05-16T09:15:31.056Z,6876.00
2023-05-16T09:16:31.007Z,7280.00
2023-05-16T09:17:38.996Z,7276.00
2023-05-16T09:18:30.995Z,7544.00
2023-05-16T09:19:31.505Z,7832.00
2023-05-16T09:20:30.834Z,8872.00
2023-05-16T09:21:30.798Z,9776.00
2023-05-16T09:22:30.799Z,9736.00
2023-05-16T09:23:30.815Z,9512.00
2023-05-16T09:24:30.708Z,8524.00
2023-05-16T09:25:31.758Z,7344.00
2023-05-16T09:26:31.502Z,6628.00
2023-05-16T09:27:30.611Z,5816.00
2023-05-16T09:28:30.580Z,5740.00
2023-05-16T09:29:30.622Z,5740.00
2023-05-16T09:30:30.592Z,5596.00
2023-05-16T09:31:30.550Z,5668.00
2023-05-16T09:32:30.475Z,5364.00
2023-05-16T09:33:30.428Z,5412.00
2023-05-16T09:34:30.403Z,5248.00
2023-05-16T09:35:43.800Z,5132.00
2023-05-16T09:36:30.372Z,5268.00
2023-05-16T09:37:30.295Z,5244.00
2023-05-16T09:38:30.294Z,5484.00
2023-05-16T09:39:30.230Z,5556.00
2023-05-16T09:40:30.318Z,5768.00
2023-05-16T09:41:30.176Z,5888.00
2023-05-16T09:42:30.166Z,5844.00
2023-05-16T09:43:30.104Z,6000.00
2023-05-16T09:44:30.080Z,6076.00
2023-05-16T09:45:30.042Z,6044.00
2023-05-16T09:46:30.098Z,6288.00
2023-05-16T09:47:29.999Z,6316.00
2023-05-16T09:48:29.959Z,6076.00
2023-05-16T09:49:29.925Z,5904.00
2023-05-16T09:50:29.919Z,6264.00
2023-05-16T09:51:29.912Z,6492.00
2023-05-16T09:52:29.837Z,6672.00
2023-05-16T09:53:29.796Z,7048.00
2023-05-16T09:54:29.764Z,6956.00
2023-05-16T09:55:29.736Z,6964.00
2023-05-16T09:56:29.768Z,7076.00
2023-05-16T09:57:29.680Z,7740.00
2023-05-16T09:58:29.638Z,10000.00
2023-05-16T09:59:29.614Z,11288.00
2023-05-16T10:00:39.054Z,11948.00
2023-05-16T10:01:29.629Z,11560.00
2023-05-16T10:02:29.626Z,10912.00
2023-05-16T10:03:29.636Z,10368.00
2023-05-16T10:04:29.669Z,10712.00
2023-05-16T10:05:29.622Z,11036.00
2023-05-16T10:06:30.062Z,13044.00
2023-05-16T10:07:29.402Z,13340.00
2023-05-16T10:08:30.921Z,10908.00
2023-05-16T10:09:30.442Z,10260.00
2023-05-16T10:10:32.939Z,12500.00
2023-05-16T10:11:29.233Z,14800.00
2023-05-16T10:12:29.202Z,16112.00
2023-05-16T10:13:29.286Z,17632.00
2023-05-16T10:14:29.197Z,17024.00
2023-05-16T10:15:29.646Z,18432.00
2023-05-16T10:16:29.145Z,17472.00
2023-05-16T10:17:29.093Z,17152.00
2023-05-16T10:18:29.023Z,18848.00
2023-05-16T10:19:29.142Z,18240.00
2023-05-16T10:20:29.023Z,15272.00
2023-05-16T10:21:28.934Z,14064.00
2023-05-16T10:22:28.955Z,14104.00
2023-05-16T10:23:28.874Z,13556.00
2023-05-16T10:24:28.846Z,12812.00
2023-05-16T10:25:29.122Z,12676.00
2023-05-16T10:26:28.771Z,12408.00
2023-05-16T10:27:28.798Z,12020.00
2023-05-16T10:28:28.718Z,10940.00
2023-05-16T10:29:28.692Z,11092.00
2023-05-16T10:30:28.673Z,11548.00
2023-05-16T10:31:28.640Z,11228.00
2023-05-16T10:32:28.715Z,10884.00
2023-05-16T10:33:28.629Z,10724.00
2023-05-16T10:34:28.539Z,10384.00
2023-05-16T10:35:29.080Z,9840.00
2023-05-16T10:36:28.482Z,9732.00
2023-05-16T10:37:28.447Z,9892.00
2023-05-16T10:38:28.483Z,10300.00
2023-05-16T10:39:28.391Z,10440.00
2023-05-16T10:40:28.369Z,10180.00
2023-05-16T10:41:33.421Z,9968.00
2023-05-16T10:42:28.298Z,9920.00
2023-05-16T10:43:28.309Z,9388.00
2023-05-16T10:44:28.312Z,9384.00
2023-05-16T10:45:28.565Z,8964.00
2023-05-16T10:46:28.218Z,8700.00
2023-05-16T10:47:28.154Z,8500.00
2023-05-16T10:48:28.244Z,8232.00
2023-05-16T10:49:28.093Z,8256.00
2023-05-16T10:50:28.122Z,8440.00
2023-05-16T10:51:28.183Z,8460.00
2023-05-16T10:52:28.924Z,8216.00
2023-05-16T10:53:27.987Z,8096.00
2023-05-16T10:54:28.000Z,8072.00
2023-05-16T10:55:28.189Z,7796.00
2023-05-16T10:56:27.891Z,7856.00
2023-05-16T10:57:27.992Z,7980.00
2023-05-16T10:58:28.139Z,8148.00
2023-05-16T10:59:27.786Z,8388.00
2023-05-16T11:00:27.758Z,8524.00
2023-05-16T11:01:27.901Z,8468.00
2023-05-16T11:02:27.804Z,8536.00
2023-05-16T11:03:27.753Z,8616.00
2023-05-16T11:04:27.637Z,8516.00
2023-05-16T11:05:27.975Z,8496.00
2023-05-16T11:06:27.569Z,8408.00
2023-05-16T11:07:27.713Z,8364.00
2023-05-16T11:08:27.506Z,8736.00
2023-05-16T11:09:27.749Z,9376.00
2023-05-16T11:10:27.507Z,9164.00
2023-05-16T11:11:27.418Z,8716.00
2023-05-16T11:12:27.390Z,8280.00
2023-05-16T11:13:27.460Z,7740.00
2023-05-16T11:14:27.322Z,7304.00
2023-05-16T11:15:27.534Z,7268.00
2023-05-16T11:16:27.399Z,7536.00
2023-05-16T11:17:27.280Z,7652.00
2023-05-16T11:18:27.260Z,7724.00
2023-05-16T11:19:27.164Z,7896.00
2023-05-16T11:20:27.134Z,8664.00
2023-05-16T11:21:27.177Z,9188.00
2023-05-16T11:22:27.079Z,9172.00
2023-05-16T11:23:27.054Z,9740.00
2023-05-16T11:24:27.024Z,10564.00
2023-05-16T11:25:27.129Z,12924.00
2023-05-16T11:26:26.951Z,15188.00
2023-05-16T11:27:26.974Z,16196.00
2023-05-16T11:28:26.957Z,17376.00
2023-05-16T11:29:26.868Z,17792.00
2023-05-16T11:30:26.849Z,18368.00
2023-05-16T11:31:26.831Z,18560.00
2023-05-16T11:32:26.857Z,17952.00
2023-05-16T11:33:27.442Z,16864.00
2023-05-16T11:34:26.709Z,16896.00
2023-05-16T11:35:26.923Z,17376.00
2023-05-16T11:36:26.702Z,18336.00
2023-05-16T11:37:26.718Z,18656.00
2023-05-16T11:38:33.677Z,18112.00
2023-05-16T11:39:26.655Z,17440.00
2023-05-16T11:40:26.542Z,16864.00
2023-05-16T11:41:26.582Z,15164.00
2023-05-16T11:42:26.478Z,11788.00
2023-05-16T11:43:26.456Z,9004.00
2023-05-16T11:44:26.425Z,10000.00
2023-05-16T11:45:26.527Z,12632.00
2023-05-16T11:46:26.411Z,14380.00
2023-05-16T11:47:26.485Z,14412.00
2023-05-16T11:48:35.661Z,16736.00
2023-05-16T11:49:26.292Z,17600.00
2023-05-16T11:50:26.249Z,17536.00
2023-05-16T11:51:26.228Z,16236.00
2023-05-16T11:52:27.054Z,15148.00
2023-05-16T11:53:26.618Z,13472.00
2023-05-16T11:54:27.187Z,13960.00
2023-05-16T11:55:40.120Z,14152.00
2023-05-16T11:56:26.200Z,13072.00
2023-05-16T11:57:27.949Z,9440.00
2023-05-16T11:58:27.062Z,7152.00
2023-05-16T11:59:26.136Z,6612.00
2023-05-16T12:00:28.469Z,6864.00
2023-05-16T12:01:26.076Z,6524.00
2023-05-16T12:02:26.604Z,6580.00
2023-05-16T12:03:26.280Z,6788.00
2023-05-16T12:04:26.137Z,7644.00
2023-05-16T12:05:25.917Z,7716.00
2023-05-16T12:06:25.796Z,9332.00
2023-05-16T12:07:25.760Z,8532.00
2023-05-16T12:08:25.732Z,8088.00
2023-05-16T12:09:25.769Z,8928.00
2023-05-16T12:10:25.779Z,10376.00
2023-05-16T12:11:25.656Z,9812.00
2023-05-16T12:12:25.625Z,9556.00
2023-05-16T12:13:25.587Z,9876.00
2023-05-16T12:14:25.633Z,10548.00
2023-05-16T12:15:25.749Z,10288.00
2023-05-16T12:16:25.518Z,9916.00
2023-05-16T12:17:25.507Z,10068.00
2023-05-16T12:18:25.439Z,11760.00
2023-05-16T12:19:25.477Z,13016.00
2023-05-16T12:20:25.445Z,13980.00
2023-05-16T12:21:25.345Z,14248.00
2023-05-16T12:22:25.320Z,15260.00
2023-05-16T12:23:25.298Z,15936.00